createdAt,value
2018-05-21T00:00:52.334Z,14.50
2018-05-21T00:03:20.376Z,14.50
2018-05-21T00:05:49.372Z,14.50
2018-05-21T00:08:17.428Z,14.50
2018-05-21T00:10:45.503Z,14.50
2018-05-21T00:13:13.548Z,14.50
2018-05-21T00:15:41.605Z,14.60
2018-05-21T00:18:09.657Z,14.50
2018-05-21T00:20:37.714Z,14.40
2018-05-21T00:23:05.768Z,14.40
2018-05-21T00:25:33.833Z,14.20
2018-05-21T00:28:01.881Z,14.10
2018-05-21T00:30:29.960Z,14.20
2018-05-21T00:32:58.009Z,14.20
2018-05-21T00:35:26.056Z,14.30
2018-05-21T00:37:54.119Z,14.20
2018-05-21T00:40:22.165Z,14.10
2018-05-21T00:42:50.220Z,13.90
2018-05-21T00:45:18.284Z,13.90
2018-05-21T00:47:46.340Z,13.90
2018-05-21T00:50:14.388Z,13.90
2018-05-21T00:52:42.457Z,13.90
2018-05-21T00:55:28.184Z,13.90
2018-05-21T00:57:56.400Z,13.90
2018-05-21T01:00:24.453Z,13.90
2018-05-21T01:02:52.519Z,13.70
2018-05-21T01:05:20.577Z,13.70
2018-05-21T01:07:48.642Z,13.70
2018-05-21T01:10:16.700Z,13.70
2018-05-21T01:12:44.772Z,13.60
2018-05-21T01:15:12.837Z,13.60
2018-05-21T01:17:40.880Z,13.60
2018-05-21T01:20:08.942Z,13.60
2018-05-21T01:22:37.014Z,13.50
2018-05-21T01:25:05.065Z,13.50
2018-05-21T01:27:33.136Z,13.40
2018-05-21T01:30:01.197Z,13.40
2018-05-21T01:32:29.260Z,13.40
2018-05-21T01:34:57.314Z,13.40
2018-05-21T01:37:25.385Z,13.40
2018-05-21T01:39:53.432Z,13.40
2018-05-21T01:42:21.504Z,13.40
2018-05-21T01:44:49.557Z,13.20
2018-05-21T01:47:17.681Z,13.20
2018-05-21T01:49:45.702Z,13.30
2018-05-21T01:52:13.756Z,13.30
2018-05-21T01:54:41.799Z,13.30
2018-05-21T01:57:09.872Z,13.30
2018-05-21T01:59:37.934Z,13.30
2018-05-21T02:02:06.004Z,13.30
2018-05-21T02:04:34.085Z,13.30
2018-05-21T02:07:02.148Z,13.20
2018-05-21T02:09:30.220Z,13.20
2018-05-21T02:11:59.212Z,13.30
2018-05-21T02:14:27.264Z,13.40
2018-05-21T02:16:55.325Z,13.20
2018-05-21T02:19:23.369Z,13.10
2018-05-21T02:21:51.439Z,13.10
2018-05-21T02:24:19.488Z,13.10
2018-05-21T02:26:47.552Z,13.10
2018-05-21T02:29:15.613Z,12.90
2018-05-21T02:31:43.690Z,12.90
2018-05-21T02:34:11.728Z,13.00
2018-05-21T02:36:39.794Z,12.90
2018-05-21T02:39:07.843Z,13.10
2018-05-21T02:41:35.911Z,13.00
2018-05-21T02:44:03.962Z,12.80
2018-05-21T02:46:32.035Z,12.80
2018-05-21T02:49:00.104Z,12.80
2018-05-21T02:51:28.169Z,13.00
2018-05-21T02:53:56.229Z,12.90
2018-05-21T02:56:24.302Z,12.70
2018-05-21T02:58:52.353Z,13.00
2018-05-21T03:01:20.422Z,13.00
2018-05-21T03:03:48.472Z,12.90
2018-05-21T03:06:16.524Z,12.70
2018-05-21T03:08:44.600Z,12.90
2018-05-21T03:11:12.680Z,12.90
2018-05-21T03:13:40.743Z,12.70
2018-05-21T03:16:08.812Z,12.60
2018-05-21T03:18:36.883Z,12.70
2018-05-21T03:21:04.976Z,12.70
2018-05-21T03:23:33.032Z,12.60
2018-05-21T03:26:01.104Z,12.40
2018-05-21T03:28:29.179Z,12.40
2018-05-21T03:30:57.244Z,12.60
2018-05-21T03:33:25.316Z,12.60
2018-05-21T03:35:53.380Z,12.50
2018-05-21T03:38:21.460Z,12.40
2018-05-21T03:40:49.529Z,12.40
2018-05-21T03:43:17.604Z,12.20
2018-05-21T03:45:45.668Z,12.30
2018-05-21T03:48:13.748Z,12.30
2018-05-21T03:50:41.800Z,12.40
2018-05-21T03:53:09.881Z,12.20
2018-05-21T03:55:37.950Z,12.10
2018-05-21T03:58:06.019Z,12.00
2018-05-21T04:00:51.677Z,11.80
2018-05-21T04:03:37.200Z,11.80
2018-05-21T04:06:05.256Z,11.80
2018-05-21T04:08:33.327Z,11.80
2018-05-21T04:11:02.212Z,11.90
2018-05-21T04:13:30.280Z,11.90
2018-05-21T04:15:58.331Z,11.90
2018-05-21T04:18:26.397Z,12.00
2018-05-21T04:20:54.448Z,12.10
2018-05-21T04:23:22.513Z,12.20
2018-05-21T04:25:50.563Z,12.20
2018-05-21T04:28:18.638Z,12.50
2018-05-21T04:30:46.704Z,12.60
2018-05-21T04:33:14.781Z,12.60
2018-05-21T04:35:42.829Z,12.60
2018-05-21T04:38:10.892Z,12.80
2018-05-21T04:40:38.958Z,12.90
2018-05-21T04:43:07.027Z,12.90
2018-05-21T04:45:35.082Z,13.00
2018-05-21T04:48:03.140Z,13.20
2018-05-21T04:50:31.235Z,13.30
2018-05-21T04:52:59.280Z,13.40
2018-05-21T04:55:27.336Z,13.40
2018-05-21T04:57:55.411Z,13.30
2018-05-21T05:00:23.484Z,13.30
2018-05-21T05:02:51.551Z,13.30
2018-05-21T05:05:19.600Z,13.40
2018-05-21T05:07:47.692Z,13.60
2018-05-21T05:10:15.740Z,13.90
2018-05-21T05:12:43.800Z,13.90
2018-05-21T05:15:11.872Z,13.70
2018-05-21T05:17:39.960Z,13.90
2018-05-21T05:20:08.025Z,14.10
2018-05-21T05:22:36.088Z,14.10
2018-05-21T05:25:04.144Z,14.60
2018-05-21T05:27:32.220Z,14.90
2018-05-21T05:30:00.268Z,15.10
2018-05-21T05:32:28.320Z,15.40
2018-05-21T05:34:56.393Z,15.50
2018-05-21T05:37:24.477Z,15.30
2018-05-21T05:39:52.527Z,15.10
2018-05-21T05:42:20.581Z,14.90
2018-05-21T05:44:48.669Z,14.90
2018-05-21T05:47:16.712Z,15.00
2018-05-21T05:49:44.764Z,15.10
2018-05-21T05:52:12.830Z,15.20
2018-05-21T05:54:40.884Z,15.30
2018-05-21T05:57:08.948Z,15.40
2018-05-21T05:59:37.381Z,15.50
2018-05-21T06:02:05.440Z,15.50
2018-05-21T06:04:33.499Z,15.50
2018-05-21T06:07:01.548Z,15.40
2018-05-21T06:09:29.608Z,15.60
2018-05-21T06:11:57.651Z,15.70
2018-05-21T06:14:25.712Z,15.80
2018-05-21T06:16:53.776Z,15.80
2018-05-21T06:19:21.838Z,15.90
2018-05-21T06:21:49.894Z,16.00
2018-05-21T06:24:17.970Z,16.30
2018-05-21T06:26:46.022Z,16.20
2018-05-21T06:29:14.089Z,16.20
2018-05-21T06:31:42.135Z,16.30
2018-05-21T06:34:10.273Z,16.50
2018-05-21T06:36:38.269Z,16.60
2018-05-21T06:39:06.324Z,16.70
2018-05-21T06:41:34.392Z,16.60
2018-05-21T06:44:02.476Z,16.80
2018-05-21T06:46:30.539Z,17.00
2018-05-21T06:48:58.624Z,16.90
2018-05-21T06:51:26.708Z,17.10
2018-05-21T06:53:54.756Z,17.10
2018-05-21T06:56:22.813Z,17.20
2018-05-21T06:58:50.860Z,17.40
2018-05-21T07:01:18.904Z,17.30
2018-05-21T07:03:46.972Z,17.10
2018-05-21T07:06:15.028Z,17.00
2018-05-21T07:08:43.113Z,17.30
2018-05-21T07:11:11.167Z,17.30
2018-05-21T07:13:39.228Z,17.30
2018-05-21T07:16:07.280Z,17.50
2018-05-21T07:18:35.336Z,17.50
2018-05-21T07:21:03.417Z,17.80
2018-05-21T07:23:31.476Z,18.20
2018-05-21T07:25:59.519Z,18.40
2018-05-21T07:28:27.572Z,18.70
2018-05-21T07:30:55.620Z,18.80
2018-05-21T07:33:23.708Z,19.00
2018-05-21T07:35:51.770Z,19.00
2018-05-21T07:38:19.826Z,18.90
2018-05-21T07:40:47.872Z,19.00
2018-05-21T07:43:15.937Z,19.10
2018-05-21T07:45:43.992Z,19.20
2018-05-21T07:48:12.045Z,19.40
2018-05-21T07:50:40.212Z,19.30
2018-05-21T07:53:08.264Z,19.50
2018-05-21T07:55:36.333Z,19.50
2018-05-21T07:58:04.384Z,19.50
2018-05-21T08:00:32.444Z,19.30
2018-05-21T08:03:00.496Z,19.30
2018-05-21T08:05:28.552Z,19.50
2018-05-21T08:07:56.617Z,19.50
2018-05-21T08:10:24.684Z,19.60
2018-05-21T08:12:52.731Z,19.60
2018-05-21T08:15:20.792Z,19.70
2018-05-21T08:17:48.832Z,19.80
2018-05-21T08:20:16.892Z,19.90
2018-05-21T08:22:44.940Z,19.70
2018-05-21T08:25:13.004Z,19.70
2018-05-21T08:27:41.069Z,19.60
2018-05-21T08:30:09.133Z,19.80
2018-05-21T08:32:37.182Z,19.80
2018-05-21T08:35:05.245Z,19.80
2018-05-21T08:37:33.296Z,20.30
2018-05-21T08:40:01.354Z,20.40
2018-05-21T08:42:29.403Z,20.50
2018-05-21T08:44:57.461Z,20.60
2018-05-21T08:47:25.520Z,20.70
2018-05-21T08:49:53.571Z,21.00
2018-05-21T08:52:21.620Z,20.90
2018-05-21T08:54:49.693Z,20.80
2018-05-21T08:57:17.732Z,20.90
2018-05-21T08:59:45.790Z,21.10
2018-05-21T09:02:13.851Z,21.20
2018-05-21T09:04:41.926Z,21.50
2018-05-21T09:07:09.946Z,21.70
2018-05-21T09:09:38.000Z,21.70
2018-05-21T09:12:06.044Z,21.50
2018-05-21T09:14:34.128Z,21.70
2018-05-21T09:17:02.183Z,21.80
2018-05-21T09:19:30.252Z,21.70
2018-05-21T09:21:58.292Z,21.80
2018-05-21T09:24:26.361Z,21.90
2018-05-21T09:26:54.410Z,22.20
2018-05-21T09:29:22.469Z,22.10
2018-05-21T09:31:50.512Z,22.10
2018-05-21T09:34:18.576Z,22.20
2018-05-21T09:36:46.625Z,22.40
2018-05-21T09:39:14.697Z,22.70
2018-05-21T09:41:42.748Z,22.90
2018-05-21T09:44:10.807Z,22.90
2018-05-21T09:46:39.130Z,23.00
2018-05-21T09:49:07.184Z,23.10
2018-05-21T09:51:35.233Z,23.20
2018-05-21T09:54:03.285Z,22.90
2018-05-21T09:56:31.353Z,22.80
2018-05-21T09:58:59.398Z,22.80
2018-05-21T10:01:27.474Z,22.90
2018-05-21T10:03:55.516Z,23.20
2018-05-21T10:06:23.572Z,23.40
2018-05-21T10:08:51.624Z,22.80
2018-05-21T10:11:19.688Z,22.70
2018-05-21T10:13:47.748Z,22.60
2018-05-21T10:16:15.816Z,22.90
2018-05-21T10:18:43.869Z,23.20
2018-05-21T10:21:11.925Z,23.30
2018-05-21T10:23:39.980Z,23.60
2018-05-21T10:26:08.034Z,23.50
2018-05-21T10:28:36.089Z,23.30
2018-05-21T10:31:04.147Z,23.00
2018-05-21T10:33:32.197Z,22.90
2018-05-21T10:36:00.260Z,23.00
2018-05-21T10:38:28.308Z,22.80
2018-05-21T10:40:56.380Z,22.80
2018-05-21T10:43:24.477Z,23.00
2018-05-21T10:45:52.553Z,23.50
2018-05-21T10:48:20.621Z,23.50
2018-05-21T10:50:48.668Z,23.90
2018-05-21T10:53:16.729Z,24.10
2018-05-21T10:55:44.801Z,24.10
2018-05-21T10:58:12.871Z,24.00
2018-05-21T11:00:40.928Z,23.90
2018-05-21T11:03:09.008Z,24.10
2018-05-21T11:05:37.060Z,24.10
2018-05-21T11:08:05.120Z,24.80
2018-05-21T11:10:33.177Z,24.90
2018-05-21T11:13:01.224Z,25.50
2018-05-21T11:15:29.279Z,26.10
2018-05-21T11:17:57.404Z,26.60
2018-05-21T11:20:25.384Z,26.40
2018-05-21T11:22:53.436Z,26.60
2018-05-21T11:25:21.497Z,26.80
2018-05-21T11:27:49.564Z,26.70
2018-05-21T11:30:17.620Z,26.90
2018-05-21T11:32:45.670Z,26.70
2018-05-21T11:35:13.760Z,27.30
2018-05-21T11:37:41.804Z,27.60
2018-05-21T11:40:09.879Z,27.90
2018-05-21T11:42:37.935Z,27.90
2018-05-21T11:45:06.043Z,27.20
2018-05-21T11:47:34.088Z,27.40
2018-05-21T11:50:02.262Z,27.70
2018-05-21T11:52:30.313Z,28.00
2018-05-21T11:54:58.395Z,27.30
2018-05-21T11:57:26.447Z,27.50
2018-05-21T11:59:54.503Z,27.70
2018-05-21T12:02:22.582Z,27.70
2018-05-21T12:04:50.658Z,28.20
2018-05-21T12:07:18.715Z,28.20
2018-05-21T12:09:46.760Z,27.70
2018-05-21T12:12:14.813Z,27.70
2018-05-21T12:14:42.866Z,28.20
2018-05-21T12:17:10.928Z,28.80
2018-05-21T12:19:38.976Z,28.80
2018-05-21T12:22:07.032Z,28.90
2018-05-21T12:24:35.080Z,28.80
2018-05-21T12:27:03.136Z,29.40
2018-05-21T12:29:31.184Z,29.80
2018-05-21T12:31:59.236Z,28.90
2018-05-21T12:34:27.284Z,28.70
2018-05-21T12:36:55.341Z,28.40
2018-05-21T12:39:23.395Z,28.80
2018-05-21T12:41:51.457Z,29.10
2018-05-21T12:44:19.508Z,30.00
2018-05-21T12:46:47.636Z,29.90
2018-05-21T12:49:15.624Z,30.00
2018-05-21T12:51:43.676Z,30.70
2018-05-21T12:54:11.742Z,29.70
2018-05-21T12:56:39.788Z,29.80
2018-05-21T12:59:07.842Z,29.40
2018-05-21T13:01:35.915Z,29.20
2018-05-21T13:04:03.958Z,30.10
2018-05-21T13:06:32.012Z,30.00
2018-05-21T13:09:00.057Z,30.00
2018-05-21T13:11:28.112Z,30.00
2018-05-21T13:13:56.164Z,29.60
2018-05-21T13:16:24.219Z,29.40
2018-05-21T13:18:52.264Z,29.70
2018-05-21T13:21:20.328Z,29.80
2018-05-21T13:23:48.380Z,29.50
2018-05-21T13:26:16.444Z,29.70
2018-05-21T13:28:44.501Z,29.50
2018-05-21T13:31:12.584Z,28.50
2018-05-21T13:33:40.643Z,27.40
2018-05-21T13:36:08.711Z,27.30
2018-05-21T13:38:36.777Z,26.80
2018-05-21T13:41:04.816Z,26.40
2018-05-21T13:43:32.872Z,25.90
2018-05-21T13:46:00.924Z,25.60
2018-05-21T13:48:28.982Z,25.30
2018-05-21T13:50:57.043Z,25.10
2018-05-21T13:53:25.084Z,25.30
2018-05-21T13:55:53.144Z,25.00
2018-05-21T13:58:21.196Z,24.80
2018-05-21T14:00:49.248Z,24.70
2018-05-21T14:03:17.301Z,24.50
2018-05-21T14:05:45.432Z,24.60
2018-05-21T14:08:13.437Z,24.60
2018-05-21T14:10:41.484Z,24.80
2018-05-21T14:13:09.536Z,24.70
2018-05-21T14:15:37.599Z,24.80
2018-05-21T14:18:05.652Z,24.90
2018-05-21T14:20:33.704Z,24.40
2018-05-21T14:23:01.775Z,24.00
2018-05-21T14:25:29.846Z,23.90
2018-05-21T14:27:57.869Z,23.90
2018-05-21T14:30:25.912Z,23.80
2018-05-21T14:32:53.975Z,23.60
2018-05-21T14:35:22.023Z,23.90
2018-05-21T14:37:50.072Z,23.70
2018-05-21T14:40:18.112Z,23.30
2018-05-21T14:42:46.173Z,23.10
2018-05-21T14:45:14.215Z,22.80
2018-05-21T14:47:42.276Z,22.70
2018-05-21T14:50:10.324Z,23.00
2018-05-21T14:52:38.389Z,23.50
2018-05-21T14:55:06.536Z,23.90
2018-05-21T14:57:34.509Z,24.00
2018-05-21T15:00:02.560Z,23.60
2018-05-21T15:02:30.620Z,23.70
2018-05-21T15:04:58.664Z,24.20
2018-05-21T15:07:26.720Z,24.80
2018-05-21T15:09:54.772Z,24.50
2018-05-21T15:12:22.852Z,24.00
2018-05-21T15:14:50.905Z,23.30
2018-05-21T15:17:18.969Z,23.00
2018-05-21T15:19:47.025Z,22.80
2018-05-21T15:22:15.149Z,22.40
2018-05-21T15:24:43.139Z,22.10
2018-05-21T15:27:11.203Z,22.00
2018-05-21T15:29:39.248Z,21.80
2018-05-21T15:32:07.304Z,21.40
2018-05-21T15:34:35.361Z,21.40
2018-05-21T15:37:03.427Z,21.30
2018-05-21T15:39:31.468Z,21.30
2018-05-21T15:41:59.528Z,21.20
2018-05-21T15:44:27.583Z,21.20
2018-05-21T15:46:55.640Z,21.10
2018-05-21T15:49:26.524Z,20.80
2018-05-21T15:51:54.588Z,20.90
2018-05-21T15:54:22.636Z,21.00
2018-05-21T15:56:50.691Z,20.80
2018-05-21T15:59:18.748Z,20.90
2018-05-21T16:01:46.825Z,20.90
2018-05-21T16:04:14.880Z,20.90
2018-05-21T16:06:42.936Z,20.70
2018-05-21T16:09:11.093Z,20.70
2018-05-21T16:11:39.145Z,21.00
2018-05-21T16:14:07.212Z,21.00
2018-05-21T16:16:35.348Z,20.70
2018-05-21T16:19:05.726Z,20.60
2018-05-21T16:21:33.788Z,20.60
2018-05-21T16:24:01.824Z,20.70
2018-05-21T16:26:30.039Z,20.70
2018-05-21T16:28:58.136Z,20.50
2018-05-21T16:31:26.194Z,20.60
2018-05-21T16:33:54.280Z,20.70
2018-05-21T16:36:22.418Z,20.70
2018-05-21T16:38:50.481Z,20.80
2018-05-21T16:41:18.528Z,21.00
2018-05-21T16:43:46.598Z,21.60
2018-05-21T16:46:14.640Z,22.50
2018-05-21T16:48:42.704Z,22.80
2018-05-21T16:51:10.744Z,23.00
2018-05-21T16:53:38.799Z,23.00
2018-05-21T16:56:06.844Z,22.80
2018-05-21T16:58:34.974Z,22.70
2018-05-21T17:01:03.040Z,22.60
2018-05-21T17:03:31.124Z,22.60
2018-05-21T17:05:59.173Z,22.50
2018-05-21T17:08:27.252Z,22.70
2018-05-21T17:10:55.297Z,23.10
2018-05-21T17:13:23.358Z,23.30
2018-05-21T17:15:51.417Z,23.40
2018-05-21T17:18:19.488Z,23.30
2018-05-21T17:20:47.536Z,23.60
2018-05-21T17:23:15.604Z,23.30
2018-05-21T17:25:43.652Z,23.30
2018-05-21T17:28:11.797Z,23.10
2018-05-21T17:30:39.860Z,22.70
2018-05-21T17:33:07.919Z,22.40
2018-05-21T17:35:36.048Z,22.20
2018-05-21T17:38:04.021Z,22.10
2018-05-21T17:40:32.069Z,21.90
2018-05-21T17:43:00.157Z,21.90
2018-05-21T17:45:28.204Z,21.60
2018-05-21T17:47:56.265Z,21.40
2018-05-21T17:50:24.308Z,21.50
2018-05-21T17:52:52.368Z,21.50
2018-05-21T17:55:20.416Z,21.20
2018-05-21T17:57:48.536Z,21.30
2018-05-21T18:00:16.538Z,21.00
2018-05-21T18:02:44.591Z,20.70
2018-05-21T18:05:12.637Z,20.60
2018-05-21T18:07:40.697Z,20.40
2018-05-21T18:10:08.739Z,20.30
2018-05-21T18:12:36.835Z,20.20
2018-05-21T18:15:04.869Z,20.20
2018-05-21T18:17:32.924Z,20.00
2018-05-21T18:20:01.055Z,19.90
2018-05-21T18:22:29.032Z,19.80
2018-05-21T18:24:57.085Z,19.60
2018-05-21T18:27:25.142Z,19.60
2018-05-21T18:29:53.194Z,19.50
2018-05-21T18:32:21.240Z,19.50
2018-05-21T18:34:49.294Z,19.90
2018-05-21T18:37:17.347Z,19.90
2018-05-21T18:39:45.405Z,19.40
2018-05-21T18:42:13.544Z,19.20
2018-05-21T18:44:41.516Z,18.90
2018-05-21T18:47:09.559Z,18.80
2018-05-21T18:49:37.637Z,18.80
2018-05-21T18:52:05.678Z,18.70
2018-05-21T18:54:33.742Z,18.70
2018-05-21T18:57:01.780Z,18.70
2018-05-21T18:59:29.841Z,18.70
2018-05-21T19:01:57.892Z,18.70
2018-05-21T19:04:25.992Z,18.60
2018-05-21T19:06:54.043Z,18.60
2018-05-21T19:09:22.100Z,18.70
2018-05-21T19:11:50.152Z,18.80
2018-05-21T19:14:18.276Z,18.50
2018-05-21T19:16:46.324Z,18.50
2018-05-21T19:19:14.384Z,18.40
2018-05-21T19:21:42.506Z,18.30
2018-05-21T19:24:10.565Z,18.20
2018-05-21T19:26:38.616Z,18.20
2018-05-21T19:29:06.676Z,18.20
2018-05-21T19:31:34.716Z,18.30
2018-05-21T19:34:02.780Z,18.10
2018-05-21T19:36:30.825Z,18.00
2018-05-21T19:38:58.903Z,18.00
2018-05-21T19:41:26.956Z,18.00
2018-05-21T19:43:55.004Z,17.90
2018-05-21T19:46:23.059Z,17.90
2018-05-21T19:48:51.112Z,17.80
2018-05-21T19:51:19.170Z,17.70
2018-05-21T19:53:47.238Z,17.70
2018-05-21T19:56:15.293Z,17.60
2018-05-21T19:58:43.364Z,17.70
2018-05-21T20:01:11.398Z,17.60
2018-05-21T20:03:39.468Z,17.70
2018-05-21T20:06:07.527Z,17.70
2018-05-21T20:08:35.588Z,17.70
2018-05-21T20:11:03.644Z,17.60
2018-05-21T20:13:31.700Z,17.40
2018-05-21T20:15:59.748Z,17.40
2018-05-21T20:18:33.636Z,17.40
2018-05-21T20:21:01.684Z,17.40
2018-05-21T20:23:29.737Z,17.40
2018-05-21T20:25:57.792Z,17.40
2018-05-21T20:28:25.844Z,17.40
2018-05-21T20:30:53.899Z,17.40
2018-05-21T20:33:21.960Z,17.30
2018-05-21T20:35:59.051Z,17.40
2018-05-21T20:38:27.108Z,17.30
2018-05-21T20:40:55.156Z,17.30
2018-05-21T20:43:23.208Z,17.20
2018-05-21T20:45:51.252Z,17.30
2018-05-21T20:48:19.325Z,17.20
2018-05-21T20:50:47.400Z,17.10
2018-05-21T20:53:15.432Z,17.10
2018-05-21T20:55:43.495Z,17.00
2018-05-21T20:58:11.548Z,16.80
2018-05-21T21:00:39.604Z,16.70
2018-05-21T21:03:16.673Z,16.70
2018-05-21T21:05:44.732Z,16.60
2018-05-21T21:08:12.984Z,16.40
2018-05-21T21:10:41.148Z,16.10
2018-05-21T21:13:09.131Z,16.30
2018-05-21T21:15:37.188Z,16.30
2018-05-21T21:18:05.237Z,16.30
2018-05-21T21:20:33.280Z,16.20
2018-05-21T21:23:01.353Z,16.20
2018-05-21T21:25:29.445Z,16.20
2018-05-21T21:27:57.503Z,16.10
2018-05-21T21:30:25.661Z,16.10
2018-05-21T21:32:53.714Z,16.20
2018-05-21T21:35:21.766Z,16.40
2018-05-21T21:37:49.812Z,16.50
2018-05-21T21:40:17.881Z,16.50
2018-05-21T21:42:45.929Z,16.50
2018-05-21T21:45:13.992Z,16.40
2018-05-21T21:47:42.035Z,16.30
2018-05-21T21:50:10.098Z,16.30
2018-05-21T21:52:38.147Z,16.40
2018-05-21T21:55:06.219Z,16.40
2018-05-21T21:57:34.267Z,16.40
2018-05-21T22:00:02.330Z,16.40
2018-05-21T22:02:30.380Z,16.50
2018-05-21T22:04:58.442Z,16.40
2018-05-21T22:07:26.504Z,16.20
2018-05-21T22:09:54.569Z,16.00
2018-05-21T22:12:22.620Z,16.00
2018-05-21T22:14:50.680Z,16.00
2018-05-21T22:17:18.729Z,16.00
2018-05-21T22:19:46.781Z,16.00
2018-05-21T22:22:14.832Z,15.90
2018-05-21T22:24:42.900Z,16.00
2018-05-21T22:27:10.954Z,16.00
2018-05-21T22:29:39.021Z,16.10
2018-05-21T22:32:07.076Z,16.20
2018-05-21T22:34:35.164Z,15.90
2018-05-21T22:37:03.210Z,15.70
2018-05-21T22:39:31.273Z,15.50
2018-05-21T22:41:59.316Z,15.60
2018-05-21T22:44:27.381Z,15.60
2018-05-21T22:46:55.436Z,15.50
2018-05-21T22:49:23.504Z,15.70
2018-05-21T22:51:51.556Z,15.70
2018-05-21T22:54:38.112Z,15.50
2018-05-21T22:57:06.165Z,15.30
2018-05-21T22:59:34.224Z,15.30
2018-05-21T23:02:02.290Z,15.20
2018-05-21T23:04:30.361Z,14.90
2018-05-21T23:06:58.405Z,14.80
2018-05-21T23:09:26.475Z,14.80
2018-05-21T23:11:54.525Z,15.00
2018-05-21T23:14:23.621Z,15.00
2018-05-21T23:16:51.664Z,15.00
2018-05-21T23:19:19.712Z,14.80
2018-05-21T23:21:47.773Z,14.80
2018-05-21T23:24:15.825Z,14.80
2018-05-21T23:26:43.900Z,14.60
2018-05-21T23:29:11.965Z,14.60
2018-05-21T23:31:40.031Z,14.40
2018-05-21T23:34:08.077Z,14.50
2018-05-21T23:36:36.140Z,14.90
2018-05-21T23:39:04.193Z,15.00
2018-05-21T23:41:32.268Z,14.60
2018-05-21T23:44:00.321Z,14.40
2018-05-21T23:46:28.376Z,14.40
2018-05-21T23:48:56.436Z,14.30
2018-05-21T23:51:24.508Z,14.40
2018-05-21T23:53:52.568Z,14.40
2018-05-21T23:56:20.637Z,14.40
2018-05-21T23:58:48.692Z,14.50
